sensor_id;sensor_type;location;lat;lon;timestamp;pressure;altitude;pressure_sealevel;temperature;humidity
60897;BME280;46749;32.932;-117.130;2023-04-27T00:00:57;101014.41;;;17.36;55.58
60897;BME280;46749;32.932;-117.130;2023-04-27T00:03:24;101005.66;;;17.37;55.65
60897;BME280;46749;32.932;-117.130;2023-04-27T00:05:50;101012.66;;;17.38;55.90
60897;BME280;46749;32.932;-117.130;2023-04-27T00:08:17;101012.66;;;17.38;55.76
60897;BME280;46749;32.932;-117.130;2023-04-27T00:10:43;101008.28;;;17.39;55.81
60897;BME280;46749;32.932;-117.130;2023-04-27T00:13:10;101012.66;;;17.40;55.76
60897;BME280;46749;32.932;-117.130;2023-04-27T00:15:36;101008.31;;;17.40;55.73
60897;BME280;46749;32.932;-117.130;2023-04-27T00:18:02;101003.09;;;17.42;55.84
60897;BME280;46749;32.932;-117.130;2023-04-27T00:20:28;101005.72;;;17.42;55.76
60897;BME280;46749;32.932;-117.130;2023-04-27T00:22:55;101003.09;;;17.43;55.74
60897;BME280;46749;32.932;-117.130;2023-04-27T00:25:21;101013.59;;;17.43;55.75
60897;BME280;46749;32.932;-117.130;2023-04-27T00:27:47;101018.88;;;17.45;55.78
60897;BME280;46749;32.932;-117.130;2023-04-27T00:30:13;101012.75;;;17.44;55.66
60897;BME280;46749;32.932;-117.130;2023-04-27T00:32:40;101014.50;;;17.45;55.62
60897;BME280;46749;32.932;-117.130;2023-04-27T00:35:07;101015.41;;;17.47;55.86
60897;BME280;46749;32.932;-117.130;2023-04-27T00:37:33;101011.06;;;17.48;55.64
60897;BME280;46749;32.932;-117.130;2023-04-27T00:40:00;101013.69;;;17.48;55.81
60897;BME280;46749;32.932;-117.130;2023-04-27T00:42:26;101014.56;;;17.48;55.63
60897;BME280;46749;32.932;-117.130;2023-04-27T00:44:52;101016.31;;;17.49;55.54
60897;BME280;46749;32.932;-117.130;2023-04-27T00:47:19;101024.19;;;17.51;55.70
60897;BME280;46749;32.932;-117.130;2023-04-27T00:49:45;101016.31;;;17.51;55.64
60897;BME280;46749;32.932;-117.130;2023-04-27T00:52:12;101015.44;;;17.50;55.86
60897;BME280;46749;32.932;-117.130;2023-04-27T00:54:38;101013.72;;;17.52;55.91
60897;BME280;46749;32.932;-117.130;2023-04-27T00:57:05;101013.72;;;17.52;55.88
60897;BME280;46749;32.932;-117.130;2023-04-27T00:59:31;101006.72;;;17.53;55.65
60897;BME280;46749;32.932;-117.130;2023-04-27T01:01:58;101004.97;;;17.53;55.55
60897;BME280;46749;32.932;-117.130;2023-04-27T01:04:24;101004.13;;;17.55;55.72
60897;BME280;46749;32.932;-117.130;2023-04-27T01:06:51;100999.75;;;17.55;55.56
60897;BME280;46749;32.932;-117.130;2023-04-27T01:09:18;101011.13;;;17.56;55.84
60897;BME280;46749;32.932;-117.130;2023-04-27T01:11:47;101007.66;;;17.57;55.71
60897;BME280;46749;32.932;-117.130;2023-04-27T01:14:13;101009.41;;;17.58;55.74
60897;BME280;46749;32.932;-117.130;2023-04-27T01:16:40;101002.41;;;17.57;55.73
60897;BME280;46749;32.932;-117.130;2023-04-27T01:19:06;101002.41;;;17.58;55.62
60897;BME280;46749;32.932;-117.130;2023-04-27T01:21:33;101005.91;;;17.59;55.79
60897;BME280;46749;32.932;-117.130;2023-04-27T01:24:00;101011.22;;;17.60;55.61
60897;BME280;46749;32.932;-117.130;2023-04-27T01:26:26;100997.16;;;17.60;55.70
60897;BME280;46749;32.932;-117.130;2023-04-27T01:28:53;101005.03;;;17.60;55.79
60897;BME280;46749;32.932;-117.130;2023-04-27T01:31:19;101006.84;;;17.61;55.83
60897;BME280;46749;32.932;-117.130;2023-04-27T01:33:45;101006.84;;;17.61;55.83
60897;BME280;46749;32.932;-117.130;2023-04-27T01:36:12;101012.97;;;17.61;55.74
60897;BME280;46749;32.932;-117.130;2023-04-27T01:38:38;101005.97;;;17.62;55.49
60897;BME280;46749;32.932;-117.130;2023-04-27T01:41:04;101009.47;;;17.62;55.82
60897;BME280;46749;32.932;-117.130;2023-04-27T01:43:32;101009.47;;;17.62;55.72
60897;BME280;46749;32.932;-117.130;2023-04-27T01:46:09;101009.47;;;17.64;55.73
60897;BME280;46749;32.932;-117.130;2023-04-27T01:48:37;101009.47;;;17.64;55.69
60897;BME280;46749;32.932;-117.130;2023-04-27T01:51:04;101013.88;;;17.65;55.84
60897;BME280;46749;32.932;-117.130;2023-04-27T01:53:30;101012.13;;;17.65;55.76
60897;BME280;46749;32.932;-117.130;2023-04-27T01:55:57;101007.75;;;17.66;55.64
60897;BME280;46749;32.932;-117.130;2023-04-27T01:58:24;101008.66;;;17.66;55.71
60897;BME280;46749;32.932;-117.130;2023-04-27T02:00:51;101009.53;;;17.67;55.53
60897;BME280;46749;32.932;-117.130;2023-04-27T02:03:17;101013.91;;;17.68;55.65
60897;BME280;46749;32.932;-117.130;2023-04-27T02:05:43;101011.28;;;17.68;55.71
60897;BME280;46749;32.932;-117.130;2023-04-27T02:08:10;101009.53;;;17.68;55.97
60897;BME280;46749;32.932;-117.130;2023-04-27T02:10:36;101011.28;;;17.69;55.78
60897;BME280;46749;32.932;-117.130;2023-04-27T02:13:02;101013.03;;;17.69;55.78
60897;BME280;46749;32.932;-117.130;2023-04-27T02:15:28;101010.41;;;17.69;55.75
60897;BME280;46749;32.932;-117.130;2023-04-27T02:17:55;101013.94;;;17.69;55.72
60897;BME280;46749;32.932;-117.130;2023-04-27T02:20:22;101014.81;;;17.70;55.74
60897;BME280;46749;32.932;-117.130;2023-04-27T02:22:48;101013.94;;;17.69;55.70
60897;BME280;46749;32.932;-117.130;2023-04-27T02:25:14;101017.44;;;17.70;55.80
60897;BME280;46749;32.932;-117.130;2023-04-27T02:27:41;101014.81;;;17.70;55.80
60897;BME280;46749;32.932;-117.130;2023-04-27T02:30:09;101013.94;;;17.71;55.82
60897;BME280;46749;32.932;-117.130;2023-04-27T02:32:36;101021.81;;;17.71;55.75
60897;BME280;46749;32.932;-117.130;2023-04-27T02:35:03;101021.81;;;17.71;55.70
60897;BME280;46749;32.932;-117.130;2023-04-27T02:37:29;101025.31;;;17.70;55.86
60897;BME280;46749;32.932;-117.130;2023-04-27T02:39:56;101026.19;;;17.70;55.85
60897;BME280;46749;32.932;-117.130;2023-04-27T02:42:22;101034.06;;;17.70;55.80
60897;BME280;46749;32.932;-117.130;2023-04-27T02:44:48;101037.56;;;17.71;55.71
60897;BME280;46749;32.932;-117.130;2023-04-27T02:47:14;101035.81;;;17.70;55.82
60897;BME280;46749;32.932;-117.130;2023-04-27T02:49:41;101029.69;;;17.69;55.85
60897;BME280;46749;32.932;-117.130;2023-04-27T02:52:07;101037.56;;;17.69;55.98
60897;BME280;46749;32.932;-117.130;2023-04-27T02:54:34;101033.19;;;17.68;55.87
60897;BME280;46749;32.932;-117.130;2023-04-27T02:57:00;101033.19;;;17.68;56.04
60897;BME280;46749;32.932;-117.130;2023-04-27T02:59:27;101037.56;;;17.68;56.02
60897;BME280;46749;32.932;-117.130;2023-04-27T03:01:53;101026.16;;;17.67;56.00
60897;BME280;46749;32.932;-117.130;2023-04-27T03:04:19;101034.06;;;17.67;55.96
60897;BME280;46749;32.932;-117.130;2023-04-27T03:07:06;101031.41;;;17.67;56.08
60897;BME280;46749;32.932;-117.130;2023-04-27T03:09:33;101035.78;;;17.67;56.10
60897;BME280;46749;32.932;-117.130;2023-04-27T03:11:59;101041.06;;;17.67;55.97
60897;BME280;46749;32.932;-117.130;2023-04-27T03:14:25;101041.94;;;17.67;56.05
60897;BME280;46749;32.932;-117.130;2023-04-27T03:16:51;101041.94;;;17.67;56.03
60897;BME280;46749;32.932;-117.130;2023-04-27T03:19:18;101037.56;;;17.68;56.20
60897;BME280;46749;32.932;-117.130;2023-04-27T03:21:45;101041.94;;;17.67;56.19
60897;BME280;46749;32.932;-117.130;2023-04-27T03:24:11;101051.56;;;17.67;55.92
60897;BME280;46749;32.932;-117.130;2023-04-27T03:26:37;101053.31;;;17.68;55.93
60897;BME280;46749;32.932;-117.130;2023-04-27T03:29:03;101051.56;;;17.67;56.12
60897;BME280;46749;32.932;-117.130;2023-04-27T03:31:30;101044.50;;;17.66;55.94
60897;BME280;46749;32.932;-117.130;2023-04-27T03:33:56;101041.94;;;17.67;55.93
60897;BME280;46749;32.932;-117.130;2023-04-27T03:36:22;101046.31;;;17.67;56.08
60897;BME280;46749;32.932;-117.130;2023-04-27T03:38:48;101051.56;;;17.67;56.00
60897;BME280;46749;32.932;-117.130;2023-04-27T03:41:15;101053.31;;;17.66;56.03
60897;BME280;46749;32.932;-117.130;2023-04-27T03:43:41;101057.66;;;17.66;55.96
60897;BME280;46749;32.932;-117.130;2023-04-27T03:46:07;101063.81;;;17.68;56.12
60897;BME280;46749;32.932;-117.130;2023-04-27T03:48:33;101063.81;;;17.66;56.11
60897;BME280;46749;32.932;-117.130;2023-04-27T03:51:00;101062.06;;;17.67;55.94
60897;BME280;46749;32.932;-117.130;2023-04-27T03:53:26;101065.53;;;17.66;55.97
60897;BME280;46749;32.932;-117.130;2023-04-27T03:55:52;101065.53;;;17.66;56.04
60897;BME280;46749;32.932;-117.130;2023-04-27T03:58:19;101070.78;;;17.66;55.93
60897;BME280;46749;32.932;-117.130;2023-04-27T04:00:45;101069.06;;;17.66;55.95
60897;BME280;46749;32.932;-117.130;2023-04-27T04:03:11;101062.91;;;17.66;55.96
60897;BME280;46749;32.932;-117.130;2023-04-27T04:05:37;101061.19;;;17.66;55.83
60897;BME280;46749;32.932;-117.130;2023-04-27T04:08:04;101061.19;;;17.66;56.04
60897;BME280;46749;32.932;-117.130;2023-04-27T04:10:30;101065.53;;;17.66;56.06
60897;BME280;46749;32.932;-117.130;2023-04-27T04:12:57;101063.78;;;17.65;55.82
60897;BME280;46749;32.932;-117.130;2023-04-27T04:15:23;101073.41;;;17.66;56.04
60897;BME280;46749;32.932;-117.130;2023-04-27T04:17:49;101064.66;;;17.65;56.02
60897;BME280;46749;32.932;-117.130;2023-04-27T04:20:16;101069.03;;;17.65;55.98
60897;BME280;46749;32.932;-117.130;2023-04-27T04:22:42;101064.66;;;17.65;55.99
60897;BME280;46749;32.932;-117.130;2023-04-27T04:25:09;101073.41;;;17.66;55.81
60897;BME280;46749;32.932;-117.130;2023-04-27T04:27:35;101069.03;;;17.65;56.02
60897;BME280;46749;32.932;-117.130;2023-04-27T04:30:02;101063.78;;;17.65;55.75
60897;BME280;46749;32.932;-117.130;2023-04-27T04:32:49;101073.41;;;17.66;55.88
60897;BME280;46749;32.932;-117.130;2023-04-27T04:35:15;101058.50;;;17.65;56.10
60897;BME280;46749;32.932;-117.130;2023-04-27T04:37:44;101070.78;;;17.66;55.80
60897;BME280;46749;32.932;-117.130;2023-04-27T04:40:11;101069.88;;;17.64;55.81
60897;BME280;46749;32.932;-117.130;2023-04-27T04:42:38;101065.50;;;17.64;55.88
60897;BME280;46749;32.932;-117.130;2023-04-27T04:45:05;101068.16;;;17.64;55.67
60897;BME280;46749;32.932;-117.130;2023-04-27T04:47:31;101072.50;;;17.64;55.87
60897;BME280;46749;32.932;-117.130;2023-04-27T04:49:59;101070.75;;;17.63;55.89
60897;BME280;46749;32.932;-117.130;2023-04-27T04:52:25;101062.88;;;17.63;56.09
60897;BME280;46749;32.932;-117.130;2023-04-27T04:54:52;101070.75;;;17.63;56.16
60897;BME280;46749;32.932;-117.130;2023-04-27T04:57:18;101070.75;;;17.63;55.79
60897;BME280;46749;32.932;-117.130;2023-04-27T04:59:45;101068.13;;;17.63;55.74
60897;BME280;46749;32.932;-117.130;2023-04-27T05:02:11;101076.00;;;17.63;55.95
60897;BME280;46749;32.932;-117.130;2023-04-27T05:04:37;101076.00;;;17.63;55.79
60897;BME280;46749;32.932;-117.130;2023-04-27T05:07:03;101075.13;;;17.62;55.88
60897;BME280;46749;32.932;-117.130;2023-04-27T05:09:31;101076.88;;;17.63;55.80
60897;BME280;46749;32.932;-117.130;2023-04-27T05:11:57;101079.50;;;17.62;55.92
60897;BME280;46749;32.932;-117.130;2023-04-27T05:14:25;101084.75;;;17.62;55.92
60897;BME280;46749;32.932;-117.130;2023-04-27T05:16:51;101082.13;;;17.62;56.08
60897;BME280;46749;32.932;-117.130;2023-04-27T05:19:18;101082.13;;;17.62;55.76
60897;BME280;46749;32.932;-117.130;2023-04-27T05:21:45;101083.88;;;17.61;55.94
60897;BME280;46749;32.932;-117.130;2023-04-27T05:24:12;101085.63;;;17.61;56.09
60897;BME280;46749;32.932;-117.130;2023-04-27T05:26:38;101082.13;;;17.60;55.93
60897;BME280;46749;32.932;-117.130;2023-04-27T05:29:04;101081.19;;;17.60;55.82
60897;BME280;46749;32.932;-117.130;2023-04-27T05:31:30;101085.56;;;17.59;55.84
60897;BME280;46749;32.932;-117.130;2023-04-27T05:33:57;101082.94;;;17.59;55.85
60897;BME280;46749;32.932;-117.130;2023-04-27T05:36:23;101082.94;;;17.59;55.84
60897;BME280;46749;32.932;-117.130;2023-04-27T05:38:49;101079.44;;;17.59;55.80
60897;BME280;46749;32.932;-117.130;2023-04-27T05:41:15;101079.44;;;17.59;55.80
60897;BME280;46749;32.932;-117.130;2023-04-27T05:43:41;101083.84;;;17.60;55.91
60897;BME280;46749;32.932;-117.130;2023-04-27T05:46:08;101078.56;;;17.58;55.96
60897;BME280;46749;32.932;-117.130;2023-04-27T05:48:38;101075.06;;;17.58;55.80
60897;BME280;46749;32.932;-117.130;2023-04-27T05:51:04;101075.94;;;17.57;55.77
60897;BME280;46749;32.932;-117.130;2023-04-27T05:53:33;101082.06;;;17.57;55.92
60897;BME280;46749;32.932;-117.130;2023-04-27T05:55:59;101075.94;;;17.57;55.84
60897;BME280;46749;32.932;-117.130;2023-04-27T05:58:26;101069.78;;;17.56;55.93
60897;BME280;46749;32.932;-117.130;2023-04-27T06:00:53;101073.31;;;17.57;55.78
60897;BME280;46749;32.932;-117.130;2023-04-27T06:03:19;101067.16;;;17.55;55.74
60897;BME280;46749;32.932;-117.130;2023-04-27T06:05:46;101061.03;;;17.54;55.90
60897;BME280;46749;32.932;-117.130;2023-04-27T06:08:12;101061.91;;;17.55;55.89
60897;BME280;46749;32.932;-117.130;2023-04-27T06:10:38;101063.66;;;17.54;55.86
60897;BME280;46749;32.932;-117.130;2023-04-27T06:13:05;101064.47;;;17.53;55.88
60897;BME280;46749;32.932;-117.130;2023-04-27T06:15:31;101057.47;;;17.52;55.82
60897;BME280;46749;32.932;-117.130;2023-04-27T06:17:57;101055.72;;;17.52;56.09
60897;BME280;46749;32.932;-117.130;2023-04-27T06:20:24;101053.97;;;17.51;55.86
60897;BME280;46749;32.932;-117.130;2023-04-27T06:22:50;101056.59;;;17.51;55.98
60897;BME280;46749;32.932;-117.130;2023-04-27T06:25:16;101058.34;;;17.49;55.93
60897;BME280;46749;32.932;-117.130;2023-04-27T06:27:42;101059.19;;;17.48;55.95
60897;BME280;46749;32.932;-117.130;2023-04-27T06:30:09;101061.81;;;17.48;55.66
60897;BME280;46749;32.932;-117.130;2023-04-27T06:32:35;101054.81;;;17.47;55.88
60897;BME280;46749;32.932;-117.130;2023-04-27T06:35:01;101059.19;;;17.48;55.93
60897;BME280;46749;32.932;-117.130;2023-04-27T06:37:28;101058.28;;;17.46;55.83
60897;BME280;46749;32.932;-117.130;2023-04-27T06:39:54;101060.03;;;17.46;55.86
60897;BME280;46749;32.932;-117.130;2023-04-27T06:42:20;101056.50;;;17.45;55.81
60897;BME280;46749;32.932;-117.130;2023-04-27T06:44:47;101058.25;;;17.45;55.80
60897;BME280;46749;32.932;-117.130;2023-04-27T06:47:13;101068.75;;;17.43;55.97
60897;BME280;46749;32.932;-117.130;2023-04-27T06:49:39;101069.63;;;17.44;56.10
60897;BME280;46749;32.932;-117.130;2023-04-27T06:52:06;101064.38;;;17.42;55.86
60897;BME280;46749;32.932;-117.130;2023-04-27T06:54:32;101073.13;;;17.43;56.06
60897;BME280;46749;32.932;-117.130;2023-04-27T06:56:58;101068.72;;;17.42;55.78
60897;BME280;46749;32.932;-117.130;2023-04-27T06:59:24;101072.19;;;17.41;55.97
60897;BME280;46749;32.932;-117.130;2023-04-27T07:01:51;101066.94;;;17.41;55.91
60897;BME280;46749;32.932;-117.130;2023-04-27T07:04:18;101066.94;;;17.39;55.89
60897;BME280;46749;32.932;-117.130;2023-04-27T07:06:44;101082.69;;;17.39;55.87
60897;BME280;46749;32.932;-117.130;2023-04-27T07:09:10;101073.94;;;17.39;55.96
60897;BME280;46749;32.932;-117.130;2023-04-27T07:11:36;101074.78;;;17.38;55.89
60897;BME280;46749;32.932;-117.130;2023-04-27T07:14:03;101075.66;;;17.38;55.89
60897;BME280;46749;32.932;-117.130;2023-04-27T07:16:29;101080.03;;;17.38;55.89
60897;BME280;46749;32.932;-117.130;2023-04-27T07:18:55;101079.16;;;17.37;55.85
60897;BME280;46749;32.932;-117.130;2023-04-27T07:21:22;101077.41;;;17.36;55.81
60897;BME280;46749;32.932;-117.130;2023-04-27T07:23:48;101086.16;;;17.37;55.97
60897;BME280;46749;32.932;-117.130;2023-04-27T07:26:14;101086.16;;;17.35;55.91
60897;BME280;46749;32.932;-117.130;2023-04-27T07:28:41;101087.91;;;17.36;55.84
60897;BME280;46749;32.932;-117.130;2023-04-27T07:31:08;101084.34;;;17.34;55.85
60897;BME280;46749;32.932;-117.130;2023-04-27T07:33:35;101090.47;;;17.35;56.00
60897;BME280;46749;32.932;-117.130;2023-04-27T07:36:02;101091.34;;;17.32;55.99
60897;BME280;46749;32.932;-117.130;2023-04-27T07:38:29;101102.72;;;17.33;55.96
60897;BME280;46749;32.932;-117.130;2023-04-27T07:40:57;101093.09;;;17.32;55.80
60897;BME280;46749;32.932;-117.130;2023-04-27T07:43:23;101096.59;;;17.32;56.01
60897;BME280;46749;32.932;-117.130;2023-04-27T07:45:50;101091.34;;;17.32;56.01
60897;BME280;46749;32.932;-117.130;2023-04-27T07:48:16;101099.22;;;17.32;55.82
60897;BME280;46749;32.932;-117.130;2023-04-27T07:50:43;101101.84;;;17.32;55.85
60897;BME280;46749;32.932;-117.130;2023-04-27T07:53:09;101100.09;;;17.33;56.11
60897;BME280;46749;32.932;-117.130;2023-04-27T07:55:36;101102.69;;;17.31;55.80
60897;BME280;46749;32.932;-117.130;2023-04-27T07:58:03;101098.31;;;17.30;56.00
60897;BME280;46749;32.932;-117.130;2023-04-27T08:00:30;101095.69;;;17.30;55.84
60897;BME280;46749;32.932;-117.130;2023-04-27T08:02:56;101093.94;;;17.29;55.79
60897;BME280;46749;32.932;-117.130;2023-04-27T08:05:23;101091.31;;;17.29;55.81
60897;BME280;46749;32.932;-117.130;2023-04-27T08:07:49;101094.75;;;17.28;55.87
60897;BME280;46749;32.932;-117.130;2023-04-27T08:10:18;101093.06;;;17.29;55.73
60897;BME280;46749;32.932;-117.130;2023-04-27T08:12:44;101086.00;;;17.27;55.91
60897;BME280;46749;32.932;-117.130;2023-04-27T08:15:11;101086.00;;;17.26;55.92
60897;BME280;46749;32.932;-117.130;2023-04-27T08:17:37;101092.13;;;17.26;55.91
60897;BME280;46749;32.932;-117.130;2023-04-27T08:20:06;101094.72;;;17.25;55.89
60897;BME280;46749;32.932;-117.130;2023-04-27T08:22:32;101084.25;;;17.25;55.90
60897;BME280;46749;32.932;-117.130;2023-04-27T08:24:58;101089.47;;;17.25;55.79
60897;BME280;46749;32.932;-117.130;2023-04-27T08:27:25;101090.34;;;17.24;55.93
60897;BME280;46749;32.932;-117.130;2023-04-27T08:29:51;101092.97;;;17.24;55.81
60897;BME280;46749;32.932;-117.130;2023-04-27T08:32:17;101090.34;;;17.24;55.90
60897;BME280;46749;32.932;-117.130;2023-04-27T08:34:43;101081.53;;;17.22;56.06
60897;BME280;46749;32.932;-117.130;2023-04-27T08:37:11;101089.41;;;17.22;55.83
60897;BME280;46749;32.932;-117.130;2023-04-27T08:39:37;101092.91;;;17.21;55.87
60897;BME280;46749;32.932;-117.130;2023-04-27T08:42:10;101097.28;;;17.20;55.96
60897;BME280;46749;32.932;-117.130;2023-04-27T08:44:40;101090.28;;;17.19;55.74
60897;BME280;46749;32.932;-117.130;2023-04-27T08:47:07;101094.63;;;17.19;55.95
60897;BME280;46749;32.932;-117.130;2023-04-27T08:49:34;101092.88;;;17.18;55.82
60897;BME280;46749;32.932;-117.130;2023-04-27T08:52:03;101085.88;;;17.17;55.82
60897;BME280;46749;32.932;-117.130;2023-04-27T08:54:29;101086.75;;;17.17;55.92
60897;BME280;46749;32.932;-117.130;2023-04-27T08:56:56;101080.63;;;17.17;55.85
60897;BME280;46749;32.932;-117.130;2023-04-27T08:59:22;101082.38;;;17.16;55.89
60897;BME280;46749;32.932;-117.130;2023-04-27T09:01:48;101082.31;;;17.15;55.76
60897;BME280;46749;32.932;-117.130;2023-04-27T09:04:16;101078.81;;;17.14;55.78
60897;BME280;46749;32.932;-117.130;2023-04-27T09:06:45;101075.31;;;17.14;55.86
60897;BME280;46749;32.932;-117.130;2023-04-27T09:09:21;101070.03;;;17.12;55.80
60897;BME280;46749;32.932;-117.130;2023-04-27T09:11:48;101063.03;;;17.11;55.80
60897;BME280;46749;32.932;-117.130;2023-04-27T09:14:21;101069.16;;;17.12;55.80
60897;BME280;46749;32.932;-117.130;2023-04-27T09:16:55;101064.78;;;17.11;55.80
60897;BME280;46749;32.932;-117.130;2023-04-27T09:19:28;101060.41;;;17.11;55.67
60897;BME280;46749;32.932;-117.130;2023-04-27T09:22:08;101061.22;;;17.09;55.73
60897;BME280;46749;32.932;-117.130;2023-04-27T09:24:49;101061.22;;;17.09;55.76
60897;BME280;46749;32.932;-117.130;2023-04-27T09:27:20;101057.72;;;17.08;55.84
60897;BME280;46749;32.932;-117.130;2023-04-27T09:29:47;101055.97;;;17.07;55.91
60897;BME280;46749;32.932;-117.130;2023-04-27T09:32:17;101047.22;;;17.07;55.83
60897;BME280;46749;32.932;-117.130;2023-04-27T09:34:45;101045.47;;;17.06;55.93
60897;BME280;46749;32.932;-117.130;2023-04-27T09:37:12;101045.47;;;17.06;55.82
60897;BME280;46749;32.932;-117.130;2023-04-27T09:39:40;101043.69;;;17.05;55.86
60897;BME280;46749;32.932;-117.130;2023-04-27T09:42:07;101041.94;;;17.04;55.78
60897;BME280;46749;32.932;-117.130;2023-04-27T09:44:34;101037.53;;;17.03;55.72
60897;BME280;46749;32.932;-117.130;2023-04-27T09:47:01;101030.53;;;17.03;55.70
60897;BME280;46749;32.932;-117.130;2023-04-27T09:49:27;101030.50;;;17.02;55.96
60897;BME280;46749;32.932;-117.130;2023-04-27T09:51:55;101024.38;;;17.01;55.75
60897;BME280;46749;32.932;-117.130;2023-04-27T09:54:26;101027.00;;;16.99;55.84
60897;BME280;46749;32.932;-117.130;2023-04-27T09:57:04;101021.75;;;16.99;55.98
60897;BME280;46749;32.932;-117.130;2023-04-27T10:02:25;101006.00;;;16.98;55.72
60897;BME280;46749;32.932;-117.130;2023-04-27T10:07:30;101010.34;;;16.97;55.99
60897;BME280;46749;32.932;-117.130;2023-04-27T10:10:00;101000.69;;;16.96;55.78
60897;BME280;46749;32.932;-117.130;2023-04-27T10:12:32;101008.56;;;16.96;55.90
60897;BME280;46749;32.932;-117.130;2023-04-27T10:15:14;101010.28;;;16.94;55.74
60897;BME280;46749;32.932;-117.130;2023-04-27T10:17:49;101009.41;;;16.94;55.75
60897;BME280;46749;32.932;-117.130;2023-04-27T10:20:16;101012.91;;;16.94;55.80
60897;BME280;46749;32.932;-117.130;2023-04-27T10:22:44;101009.41;;;16.94;55.82
60897;BME280;46749;32.932;-117.130;2023-04-27T10:25:22;101004.16;;;16.92;55.69
60897;BME280;46749;32.932;-117.130;2023-04-27T10:27:56;101001.53;;;16.92;55.78
60897;BME280;46749;32.932;-117.130;2023-04-27T10:30:25;101004.13;;;16.91;55.95
60897;BME280;46749;32.932;-117.130;2023-04-27T10:32:56;101010.25;;;16.91;55.81
60897;BME280;46749;32.932;-117.130;2023-04-27T10:35:36;101007.59;;;16.90;55.85
60897;BME280;46749;32.932;-117.130;2023-04-27T10:38:16;101012.84;;;16.90;55.81
60897;BME280;46749;32.932;-117.130;2023-04-27T10:40:44;101010.19;;;16.88;55.76
60897;BME280;46749;32.932;-117.130;2023-04-27T10:43:13;101009.31;;;16.88;55.88
60897;BME280;46749;32.932;-117.130;2023-04-27T10:45:41;101008.44;;;16.87;55.82
60897;BME280;46749;32.932;-117.130;2023-04-27T10:48:10;101006.69;;;16.86;55.88
60897;BME280;46749;32.932;-117.130;2023-04-27T10:50:37;101007.56;;;16.85;55.78
60897;BME280;46749;32.932;-117.130;2023-04-27T10:53:05;101002.31;;;16.85;55.69
60897;BME280;46749;32.932;-117.130;2023-04-27T10:55:33;101002.31;;;16.85;55.88
60897;BME280;46749;32.932;-117.130;2023-04-27T10:58:00;101006.66;;;16.85;55.86
60897;BME280;46749;32.932;-117.130;2023-04-27T11:00:27;101006.63;;;16.83;55.77
60897;BME280;46749;32.932;-117.130;2023-04-27T11:02:56;101009.25;;;16.83;55.74
60897;BME280;46749;32.932;-117.130;2023-04-27T11:05:26;100998.72;;;16.82;55.75
60897;BME280;46749;32.932;-117.130;2023-04-27T11:08:23;101002.22;;;16.81;55.98
60897;BME280;46749;32.932;-117.130;2023-04-27T11:10:51;100991.72;;;16.81;55.85
60897;BME280;46749;32.932;-117.130;2023-04-27T11:13:22;100995.22;;;16.80;55.62
60897;BME280;46749;32.932;-117.130;2023-04-27T11:15:49;100991.72;;;16.79;55.73
60897;BME280;46749;32.932;-117.130;2023-04-27T11:18:17;100991.72;;;16.79;55.75
60897;BME280;46749;32.932;-117.130;2023-04-27T11:20:47;100995.16;;;16.78;55.77
60897;BME280;46749;32.932;-117.130;2023-04-27T11:23:24;100993.41;;;16.76;55.59
60897;BME280;46749;32.932;-117.130;2023-04-27T11:25:51;100997.78;;;16.77;55.72
60897;BME280;46749;32.932;-117.130;2023-04-27T11:28:21;101003.88;;;16.76;55.94
60897;BME280;46749;32.932;-117.130;2023-04-27T11:30:55;101005.63;;;16.75;55.76
60897;BME280;46749;32.932;-117.130;2023-04-27T11:33:22;101010.84;;;16.74;55.88
60897;BME280;46749;32.932;-117.130;2023-04-27T11:35:48;101006.50;;;16.74;55.82
60897;BME280;46749;32.932;-117.130;2023-04-27T11:38:15;101005.63;;;16.74;55.81
60897;BME280;46749;32.932;-117.130;2023-04-27T11:40:46;101002.13;;;16.73;55.83
60897;BME280;46749;32.932;-117.130;2023-04-27T11:43:13;101000.38;;;16.74;55.69
60897;BME280;46749;32.932;-117.130;2023-04-27T11:45:43;101000.34;;;16.72;55.62
60897;BME280;46749;32.932;-117.130;2023-04-27T11:48:14;100997.72;;;16.72;55.59
60897;BME280;46749;32.932;-117.130;2023-04-27T11:50:50;100994.19;;;16.70;55.78
60897;BME280;46749;32.932;-117.130;2023-04-27T11:53:29;100995.88;;;16.69;55.77
60897;BME280;46749;32.932;-117.130;2023-04-27T11:55:59;101003.75;;;16.69;55.83
60897;BME280;46749;32.932;-117.130;2023-04-27T11:58:27;101002.88;;;16.69;55.91
60897;BME280;46749;32.932;-117.130;2023-04-27T12:00:58;100999.34;;;16.67;55.73
60897;BME280;46749;32.932;-117.130;2023-04-27T12:03:24;101001.13;;;16.68;55.74
60897;BME280;46749;32.932;-117.130;2023-04-27T12:05:51;101004.56;;;16.65;55.82
60897;BME280;46749;32.932;-117.130;2023-04-27T12:08:19;101000.22;;;16.66;55.83
60897;BME280;46749;32.932;-117.130;2023-04-27T12:10:45;101002.78;;;16.64;55.87
60897;BME280;46749;32.932;-117.130;2023-04-27T12:13:12;100995.81;;;16.65;55.86
60897;BME280;46749;32.932;-117.130;2023-04-27T12:15:39;100999.28;;;16.64;55.84
60897;BME280;46749;32.932;-117.130;2023-04-27T12:18:06;101002.78;;;16.63;55.90
60897;BME280;46749;32.932;-117.130;2023-04-27T12:20:33;101001.91;;;16.62;55.71
60897;BME280;46749;32.932;-117.130;2023-04-27T12:22:59;100996.66;;;16.62;55.89
60897;BME280;46749;32.932;-117.130;2023-04-27T12:25:26;100995.78;;;16.62;55.77
60897;BME280;46749;32.932;-117.130;2023-04-27T12:27:52;100994.00;;;16.61;55.77